createdAt,value
2023-04-06T00:00:34.676Z,505.00
2023-04-06T00:01:24.937Z,508.00
2023-04-06T00:02:15.055Z,517.00
2023-04-06T00:03:05.194Z,509.00
2023-04-06T00:03:55.193Z,508.00
2023-04-06T00:04:45.179Z,513.00
2023-04-06T00:05:35.237Z,518.00
2023-04-06T00:06:25.297Z,508.00
2023-04-06T00:07:15.368Z,513.00
2023-04-06T00:08:05.417Z,514.00
2023-04-06T00:08:55.499Z,512.00
2023-04-06T00:09:45.517Z,514.00
2023-04-06T00:10:35.575Z,513.00
2023-04-06T00:11:25.650Z,516.00
2023-04-06T00:12:15.717Z,512.00
2023-04-06T00:13:05.796Z,515.00
2023-04-06T00:13:55.839Z,508.00
2023-04-06T00:14:45.849Z,513.00
2023-04-06T00:15:35.918Z,511.00
2023-04-06T00:16:27.614Z,509.00
2023-04-06T00:17:16.034Z,509.00
2023-04-06T00:18:06.202Z,509.00
2023-04-06T00:18:56.175Z,511.00
2023-04-06T00:19:46.268Z,510.00
2023-04-06T00:20:36.289Z,508.00
2023-04-06T00:21:26.415Z,502.00
2023-04-06T00:22:16.422Z,500.00
2023-04-06T00:23:06.491Z,501.00
2023-04-06T00:23:56.590Z,504.00
2023-04-06T00:24:46.831Z,498.00
2023-04-06T00:25:36.911Z,506.00
2023-04-06T00:26:26.994Z,502.00
2023-04-06T00:27:17.279Z,502.00
2023-04-06T00:28:07.354Z,504.00
2023-04-06T00:28:57.445Z,500.00
2023-04-06T00:29:47.469Z,500.00
2023-04-06T00:30:37.528Z,500.00
2023-04-06T00:31:27.635Z,504.00
2023-04-06T00:32:17.767Z,504.00
2023-04-06T00:33:07.926Z,501.00
2023-04-06T00:33:57.828Z,502.00
2023-04-06T00:34:47.829Z,508.00
2023-04-06T00:35:37.966Z,508.00
2023-04-06T00:36:28.155Z,508.00
2023-04-06T00:37:18.230Z,504.00
2023-04-06T00:38:08.297Z,503.00
2023-04-06T00:38:58.391Z,503.00
2023-04-06T00:39:48.409Z,501.00
2023-04-06T00:40:38.485Z,501.00
2023-04-06T00:41:28.565Z,502.00
2023-04-06T00:42:18.622Z,500.00
2023-04-06T00:43:08.685Z,514.00
2023-04-06T00:43:58.792Z,512.00
2023-04-06T00:44:48.810Z,508.00
2023-04-06T00:45:38.899Z,505.00
2023-04-06T00:46:29.057Z,513.00
2023-04-06T00:47:18.941Z,511.00
2023-04-06T00:48:09.017Z,510.00
2023-04-06T00:48:59.064Z,520.00
2023-04-06T00:49:49.132Z,510.00
2023-04-06T00:50:39.213Z,504.00
2023-04-06T00:51:29.298Z,513.00
2023-04-06T00:52:19.567Z,511.00
2023-04-06T00:53:09.630Z,510.00
2023-04-06T00:53:59.738Z,505.00
2023-04-06T00:54:49.737Z,506.00
2023-04-06T00:55:39.816Z,506.00
2023-04-06T00:56:29.889Z,510.00
2023-04-06T00:57:19.962Z,510.00
2023-04-06T00:58:09.999Z,504.00
2023-04-06T00:59:00.110Z,503.00
2023-04-06T00:59:50.097Z,503.00
2023-04-06T01:00:40.172Z,504.00
2023-04-06T01:01:30.478Z,506.00
2023-04-06T01:02:20.577Z,504.00
2023-04-06T01:03:10.566Z,509.00
2023-04-06T01:04:00.655Z,513.00
2023-04-06T01:04:50.680Z,507.00
2023-04-06T01:05:40.861Z,512.00
2023-04-06T01:06:30.805Z,509.00
2023-04-06T01:07:20.901Z,513.00
2023-04-06T01:08:10.941Z,510.00
2023-04-06T01:09:01.053Z,508.00
2023-04-06T01:09:51.080Z,513.00
2023-04-06T01:10:41.152Z,511.00
2023-04-06T01:11:31.216Z,514.00
2023-04-06T01:12:21.300Z,507.00
2023-04-06T01:13:11.355Z,505.00
2023-04-06T01:14:01.409Z,514.00
2023-04-06T01:14:51.431Z,510.00
2023-04-06T01:15:41.515Z,511.00
2023-04-06T01:16:31.569Z,513.00
2023-04-06T01:17:21.604Z,513.00
2023-04-06T01:18:11.636Z,510.00
2023-04-06T01:19:01.739Z,507.00
2023-04-06T01:19:51.754Z,507.00
2023-04-06T01:20:41.855Z,505.00
2023-04-06T01:21:31.871Z,506.00
2023-04-06T01:22:21.956Z,505.00
2023-04-06T01:23:12.009Z,509.00
2023-04-06T01:24:02.078Z,500.00
2023-04-06T01:24:52.096Z,507.00
2023-04-06T01:25:42.167Z,508.00
2023-04-06T01:26:32.254Z,504.00
2023-04-06T01:27:22.313Z,506.00
2023-04-06T01:28:12.383Z,509.00
2023-04-06T01:29:02.488Z,511.00
2023-04-06T01:29:52.523Z,502.00
2023-04-06T01:30:42.794Z,510.00
2023-04-06T01:31:32.865Z,502.00
2023-04-06T01:32:22.923Z,504.00
2023-04-06T01:33:12.976Z,510.00
2023-04-06T01:34:03.056Z,511.00
2023-04-06T01:34:53.098Z,512.00
2023-04-06T01:35:43.214Z,506.00
2023-04-06T01:36:33.217Z,506.00
2023-04-06T01:37:23.272Z,513.00
2023-04-06T01:38:13.314Z,501.00
2023-04-06T01:39:03.432Z,507.00
2023-04-06T01:39:53.681Z,509.00
2023-04-06T01:40:43.761Z,513.00
2023-04-06T01:41:33.827Z,507.00
2023-04-06T01:42:23.890Z,508.00
2023-04-06T01:43:13.999Z,517.00
2023-04-06T01:44:04.043Z,512.00
2023-04-06T01:44:54.063Z,505.00
2023-04-06T01:45:44.098Z,510.00
2023-04-06T01:46:34.167Z,512.00
2023-04-06T01:47:24.256Z,514.00
2023-04-06T01:48:14.271Z,511.00
2023-04-06T01:49:04.610Z,503.00
2023-04-06T01:49:54.638Z,504.00
2023-04-06T01:50:44.716Z,505.00
2023-04-06T01:51:34.750Z,511.00
2023-04-06T01:52:24.822Z,504.00
2023-04-06T01:53:14.846Z,508.00
2023-04-06T01:54:04.958Z,503.00
2023-04-06T01:54:54.965Z,509.00
2023-04-06T01:55:45.041Z,500.00
2023-04-06T01:56:35.109Z,503.00
2023-04-06T01:57:25.178Z,505.00
2023-04-06T01:58:15.421Z,506.00
2023-04-06T01:59:05.555Z,504.00
2023-04-06T01:59:55.559Z,507.00
2023-04-06T02:00:45.626Z,502.00
2023-04-06T02:01:35.700Z,506.00
2023-04-06T02:02:26.037Z,507.00
2023-04-06T02:03:15.925Z,502.00
2023-04-06T02:04:05.907Z,506.00
2023-04-06T02:04:55.936Z,502.00
2023-04-06T02:05:46.021Z,513.00
2023-04-06T02:06:36.042Z,510.00
2023-04-06T02:07:26.324Z,511.00
2023-04-06T02:08:16.401Z,502.00
2023-04-06T02:09:06.774Z,504.00
2023-04-06T02:09:56.472Z,506.00
2023-04-06T02:10:46.509Z,504.00
2023-04-06T02:11:36.590Z,513.00
2023-04-06T02:12:26.649Z,508.00
2023-04-06T02:13:16.679Z,506.00
2023-04-06T02:14:06.772Z,504.00
2023-04-06T02:14:56.792Z,517.00
2023-04-06T02:15:46.854Z,513.00
2023-04-06T02:16:37.213Z,512.00
2023-04-06T02:17:27.231Z,507.00
2023-04-06T02:18:17.275Z,506.00
2023-04-06T02:19:07.914Z,500.00
2023-04-06T02:19:57.652Z,507.00
2023-04-06T02:20:47.724Z,503.00
2023-04-06T02:21:38.048Z,503.00
2023-04-06T02:22:28.113Z,508.00
2023-04-06T02:23:18.145Z,505.00
2023-04-06T02:24:08.367Z,510.00
2023-04-06T02:24:58.363Z,505.00
2023-04-06T02:25:48.352Z,503.00
2023-04-06T02:26:38.373Z,502.00
2023-04-06T02:27:28.448Z,516.00
2023-04-06T02:28:18.680Z,502.00
2023-04-06T02:29:09.104Z,508.00
2023-04-06T02:29:58.806Z,503.00
2023-04-06T02:30:48.885Z,502.00
2023-04-06T02:31:38.927Z,501.00
2023-04-06T02:32:28.979Z,504.00
2023-04-06T02:33:19.009Z,508.00
2023-04-06T02:34:09.097Z,506.00
2023-04-06T02:34:59.126Z,519.00
2023-04-06T02:35:49.257Z,519.00
2023-04-06T02:36:39.229Z,515.00
2023-04-06T02:37:29.297Z,523.00
2023-04-06T02:38:19.368Z,514.00
2023-04-06T02:39:09.690Z,525.00
2023-04-06T02:39:59.497Z,518.00
2023-04-06T02:40:49.603Z,517.00
2023-04-06T02:41:39.608Z,508.00
2023-04-06T02:42:29.691Z,506.00
2023-04-06T02:43:19.716Z,506.00
2023-04-06T02:44:09.792Z,506.00
2023-04-06T02:44:59.852Z,505.00
2023-04-06T02:45:49.947Z,507.00
2023-04-06T02:46:39.937Z,509.00
2023-04-06T02:47:30.038Z,505.00
2023-04-06T02:48:20.075Z,500.00
2023-04-06T02:49:10.533Z,501.00
2023-04-06T02:50:00.417Z,506.00
2023-04-06T02:50:50.491Z,509.00
2023-04-06T02:51:40.528Z,504.00
2023-04-06T02:52:30.612Z,506.00
2023-04-06T02:53:20.628Z,508.00
2023-04-06T02:54:10.738Z,506.00
2023-04-06T02:55:00.767Z,506.00
2023-04-06T02:55:50.831Z,504.00
2023-04-06T02:56:40.936Z,500.00
2023-04-06T02:57:30.972Z,502.00
2023-04-06T02:58:21.044Z,502.00
2023-04-06T02:59:11.640Z,503.00
2023-04-06T03:00:01.423Z,504.00
2023-04-06T03:00:51.490Z,504.00
2023-04-06T03:01:41.556Z,502.00
2023-04-06T03:02:31.804Z,508.00
2023-04-06T03:03:21.695Z,503.00
2023-04-06T03:04:11.720Z,505.00
2023-04-06T03:05:01.743Z,500.00
2023-04-06T03:05:51.810Z,502.00
2023-04-06T03:06:41.837Z,505.00
2023-04-06T03:07:31.915Z,502.00
2023-04-06T03:08:21.984Z,503.00
2023-04-06T03:09:12.083Z,506.00
2023-04-06T03:10:02.107Z,504.00
2023-04-06T03:10:52.169Z,515.00
2023-04-06T03:11:42.234Z,523.00
2023-04-06T03:12:32.319Z,517.00
2023-04-06T03:13:22.359Z,519.00
2023-04-06T03:14:12.456Z,521.00
2023-04-06T03:15:02.738Z,510.00
2023-04-06T03:15:52.838Z,513.00
2023-04-06T03:16:42.874Z,514.00
2023-04-06T03:17:32.967Z,510.00
2023-04-06T03:18:22.982Z,511.00
2023-04-06T03:19:13.085Z,519.00
2023-04-06T03:20:03.101Z,512.00
2023-04-06T03:20:53.177Z,511.00
2023-04-06T03:21:43.250Z,513.00
2023-04-06T03:22:33.324Z,509.00
2023-04-06T03:23:23.390Z,507.00
2023-04-06T03:24:13.485Z,509.00
2023-04-06T03:25:03.862Z,508.00
2023-04-06T03:25:53.546Z,502.00
2023-04-06T03:26:43.580Z,510.00
2023-04-06T03:27:33.674Z,511.00
2023-04-06T03:28:23.705Z,506.00
2023-04-06T03:29:13.784Z,504.00
2023-04-06T03:30:03.821Z,500.00
2023-04-06T03:30:53.914Z,504.00
2023-04-06T03:31:43.962Z,507.00
2023-04-06T03:32:34.057Z,512.00
2023-04-06T03:33:24.060Z,506.00
2023-04-06T03:34:14.131Z,512.00
2023-04-06T03:35:04.168Z,500.00
2023-04-06T03:35:54.250Z,505.00
2023-04-06T03:36:44.531Z,503.00
2023-04-06T03:37:34.612Z,503.00
2023-04-06T03:38:24.647Z,504.00
2023-04-06T03:39:15.006Z,511.00
2023-04-06T03:40:05.033Z,509.00
2023-04-06T03:40:55.117Z,506.00
2023-04-06T03:41:45.151Z,502.00
2023-04-06T03:42:35.188Z,507.00
2023-04-06T03:43:25.240Z,513.00
2023-04-06T03:44:15.295Z,507.00
2023-04-06T03:45:05.302Z,504.00
2023-04-06T03:45:55.392Z,507.00
2023-04-06T03:46:45.472Z,505.00
2023-04-06T03:47:35.576Z,506.00
2023-04-06T03:48:25.567Z,509.00
2023-04-06T03:49:15.663Z,506.00
2023-04-06T03:50:05.689Z,510.00
2023-04-06T03:50:55.769Z,507.00
2023-04-06T03:51:45.841Z,509.00
2023-04-06T03:52:35.891Z,513.00
2023-04-06T03:53:25.935Z,511.00
2023-04-06T03:54:16.047Z,508.00
2023-04-06T03:55:06.081Z,520.00
2023-04-06T03:55:56.380Z,519.00
2023-04-06T03:56:46.448Z,518.00
2023-04-06T03:57:36.520Z,512.00
2023-04-06T03:58:26.800Z,517.00
2023-04-06T03:59:16.996Z,519.00
2023-04-06T04:00:06.947Z,510.00
2023-04-06T04:00:57.272Z,515.00
2023-04-06T04:01:47.334Z,516.00
2023-04-06T04:02:37.424Z,519.00
2023-04-06T04:03:27.553Z,512.00
2023-04-06T04:04:17.515Z,526.00
2023-04-06T04:05:07.611Z,530.00
2023-04-06T04:05:57.627Z,530.00
2023-04-06T04:06:47.688Z,531.00
2023-04-06T04:07:37.807Z,534.00
2023-04-06T04:08:27.863Z,526.00
2023-04-06T04:09:17.966Z,524.00
2023-04-06T04:10:07.989Z,520.00
2023-04-06T04:10:58.063Z,526.00
2023-04-06T04:11:48.106Z,526.00
2023-04-06T04:12:38.164Z,524.00
2023-04-06T04:13:28.206Z,523.00
2023-04-06T04:14:18.257Z,507.00
2023-04-06T04:15:08.290Z,505.00
2023-04-06T04:15:58.518Z,509.00
2023-04-06T04:16:48.437Z,514.00
2023-04-06T04:17:38.490Z,510.00
2023-04-06T04:18:28.475Z,527.00
2023-04-06T04:19:18.539Z,518.00
2023-04-06T04:20:08.560Z,525.00
2023-04-06T04:20:58.681Z,530.00
2023-04-06T04:21:48.706Z,529.00
2023-04-06T04:22:38.787Z,535.00
2023-04-06T04:23:28.814Z,540.00
2023-04-06T04:24:18.890Z,546.00
2023-04-06T04:25:08.943Z,540.00
2023-04-06T04:25:59.011Z,544.00
2023-04-06T04:26:49.024Z,543.00
2023-04-06T04:27:39.099Z,540.00
2023-04-06T04:28:29.147Z,551.00
2023-04-06T04:29:19.254Z,553.00
2023-04-06T04:30:09.283Z,551.00
2023-04-06T04:30:59.363Z,561.00
2023-04-06T04:31:49.497Z,551.00
2023-04-06T04:32:39.527Z,569.00
2023-04-06T04:33:29.545Z,570.00
2023-04-06T04:34:19.629Z,567.00
2023-04-06T04:35:09.642Z,564.00
2023-04-06T04:35:59.744Z,558.00
2023-04-06T04:36:50.043Z,544.00
2023-04-06T04:37:40.121Z,551.00
2023-04-06T04:38:30.139Z,548.00
2023-04-06T04:39:20.492Z,550.00
2023-04-06T04:40:10.528Z,549.00
2023-04-06T04:41:00.595Z,546.00
2023-04-06T04:41:50.660Z,552.00
2023-04-06T04:42:40.687Z,541.00
2023-04-06T04:43:32.767Z,541.00
2023-04-06T04:44:20.864Z,540.00
2023-04-06T04:45:10.894Z,536.00
2023-04-06T04:46:01.012Z,540.00
2023-04-06T04:46:51.039Z,537.00
2023-04-06T04:47:41.201Z,532.00
2023-04-06T04:48:31.358Z,530.00
2023-04-06T04:49:21.422Z,530.00
2023-04-06T04:50:11.452Z,536.00
2023-04-06T04:51:01.528Z,531.00
2023-04-06T04:51:51.606Z,531.00
2023-04-06T04:52:41.639Z,530.00
2023-04-06T04:53:31.676Z,527.00
2023-04-06T04:54:21.766Z,533.00
2023-04-06T04:55:11.797Z,528.00
2023-04-06T04:56:01.874Z,530.00
2023-04-06T04:56:51.902Z,529.00
2023-04-06T04:57:41.974Z,527.00
2023-04-06T04:58:32.009Z,525.00
2023-04-06T04:59:22.151Z,527.00
2023-04-06T05:00:12.167Z,531.00
2023-04-06T05:01:02.241Z,523.00
2023-04-06T05:01:55.403Z,522.00
2023-04-06T05:02:42.407Z,522.00
2023-04-06T05:03:32.576Z,521.00
2023-04-06T05:04:22.549Z,519.00
2023-04-06T05:05:12.578Z,522.00
2023-04-06T05:06:02.670Z,523.00
2023-04-06T05:06:52.689Z,525.00
2023-04-06T05:07:42.754Z,522.00
2023-04-06T05:08:32.809Z,533.00
2023-04-06T05:09:22.908Z,529.00
2023-04-06T05:10:12.924Z,528.00
2023-04-06T05:11:03.002Z,533.00
2023-04-06T05:11:53.026Z,534.00
2023-04-06T05:12:43.359Z,531.00
2023-04-06T05:13:33.421Z,537.00
2023-04-06T05:14:23.513Z,537.00
2023-04-06T05:15:13.794Z,529.00
2023-04-06T05:16:03.956Z,534.00
2023-04-06T05:16:53.946Z,536.00
2023-04-06T05:17:44.018Z,532.00
2023-04-06T05:18:34.026Z,538.00
2023-04-06T05:19:24.083Z,543.00
2023-04-06T05:20:14.140Z,542.00
2023-04-06T05:21:04.162Z,541.00
2023-04-06T05:21:54.229Z,542.00
2023-04-06T05:22:44.300Z,549.00
2023-04-06T05:23:34.344Z,547.00
2023-04-06T05:24:24.687Z,552.00
2023-04-06T05:25:14.704Z,537.00
2023-04-06T05:26:04.781Z,544.00
2023-04-06T05:26:55.099Z,551.00
2023-04-06T05:27:45.174Z,546.00
2023-04-06T05:28:35.241Z,546.00
2023-04-06T05:29:25.341Z,549.00
2023-04-06T05:30:15.362Z,545.00
2023-04-06T05:31:05.525Z,543.00
2023-04-06T05:31:55.492Z,545.00
2023-04-06T05:32:45.626Z,543.00
2023-04-06T05:33:35.617Z,544.00
2023-04-06T05:34:25.729Z,543.00
2023-04-06T05:35:15.723Z,546.00
2023-04-06T05:36:05.908Z,554.00
2023-04-06T05:36:55.886Z,561.00
2023-04-06T05:37:45.911Z,562.00
2023-04-06T05:38:35.985Z,556.00
2023-04-06T05:39:26.060Z,554.00
2023-04-06T05:40:16.136Z,545.00
2023-04-06T05:41:06.214Z,552.00
2023-04-06T05:41:56.254Z,545.00
2023-04-06T05:42:46.281Z,545.00
2023-04-06T05:43:36.316Z,543.00
2023-04-06T05:44:26.371Z,546.00
2023-04-06T05:45:16.397Z,546.00
2023-04-06T05:46:06.517Z,544.00
2023-04-06T05:46:56.702Z,538.00
2023-04-06T05:47:46.691Z,538.00
2023-04-06T05:48:36.671Z,544.00
2023-04-06T05:49:27.044Z,541.00
2023-04-06T05:50:17.063Z,546.00
2023-04-06T05:51:07.112Z,543.00
2023-04-06T05:51:57.125Z,553.00
2023-04-06T05:52:47.184Z,539.00
2023-04-06T05:53:37.255Z,539.00
2023-04-06T05:54:27.346Z,544.00
2023-04-06T05:55:17.371Z,545.00
2023-04-06T05:56:07.433Z,546.00
2023-04-06T05:56:57.503Z,536.00
2023-04-06T05:57:47.585Z,537.00
2023-04-06T05:58:37.835Z,529.00
2023-04-06T05:59:27.992Z,531.00
2023-04-06T06:00:17.944Z,539.00
2023-04-06T06:01:08.278Z,529.00
2023-04-06T06:01:58.390Z,537.00
2023-04-06T06:02:48.396Z,531.00
2023-04-06T06:03:38.412Z,538.00
2023-04-06T06:04:28.508Z,535.00
2023-04-06T06:05:18.532Z,533.00
2023-04-06T06:06:08.509Z,527.00
2023-04-06T06:06:58.540Z,528.00
2023-04-06T06:07:48.656Z,532.00
2023-04-06T06:08:38.687Z,528.00
2023-04-06T06:09:28.786Z,525.00
2023-04-06T06:10:18.818Z,528.00
2023-04-06T06:11:08.898Z,520.00
2023-04-06T06:11:58.935Z,526.00
2023-04-06T06:12:49.015Z,528.00
2023-04-06T06:13:39.052Z,522.00
2023-04-06T06:14:29.139Z,520.00
2023-04-06T06:15:19.164Z,517.00
2023-04-06T06:16:09.215Z,512.00
2023-04-06T06:16:59.258Z,520.00
2023-04-06T06:17:49.354Z,516.00
2023-04-06T06:18:39.338Z,509.00
2023-04-06T06:19:29.430Z,516.00
2023-04-06T06:20:19.474Z,512.00
2023-04-06T06:21:09.608Z,502.00
2023-04-06T06:21:59.607Z,497.00
2023-04-06T06:22:49.683Z,510.00
2023-04-06T06:23:39.708Z,506.00
2023-04-06T06:24:31.610Z,511.00
2023-04-06T06:25:20.014Z,510.00
2023-04-06T06:26:09.858Z,509.00
2023-04-06T06:26:59.884Z,518.00
2023-04-06T06:27:49.966Z,516.00
2023-04-06T06:28:40.059Z,520.00
2023-04-06T06:29:30.267Z,533.00
2023-04-06T06:30:22.888Z,526.00
2023-04-06T06:31:10.378Z,526.00
2023-04-06T06:32:00.458Z,527.00
2023-04-06T06:32:50.460Z,527.00
2023-04-06T06:33:40.497Z,528.00
2023-04-06T06:34:30.586Z,528.00
2023-04-06T06:35:20.629Z,526.00
2023-04-06T06:36:10.657Z,512.00
2023-04-06T06:37:00.759Z,516.00
2023-04-06T06:37:50.785Z,517.00
2023-04-06T06:38:40.804Z,526.00
2023-04-06T06:39:30.894Z,524.00
2023-04-06T06:40:20.914Z,527.00
2023-04-06T06:41:11.009Z,527.00
2023-04-06T06:42:01.076Z,530.00
2023-04-06T06:42:51.154Z,528.00
2023-04-06T06:43:41.183Z,521.00
2023-04-06T06:44:31.434Z,520.00
2023-04-06T06:45:21.342Z,522.00
2023-04-06T06:46:11.417Z,517.00
2023-04-06T06:47:01.439Z,528.00
2023-04-06T06:47:54.364Z,528.00
2023-04-06T06:48:41.541Z,525.00
2023-04-06T06:49:31.637Z,523.00
2023-04-06T06:50:21.682Z,520.00
2023-04-06T06:51:11.747Z,519.00
2023-04-06T06:52:01.770Z,522.00
2023-04-06T06:52:51.888Z,518.00
2023-04-06T06:53:41.880Z,518.00
2023-04-06T06:54:31.981Z,517.00
2023-04-06T06:55:21.998Z,519.00
2023-04-06T06:56:12.337Z,517.00
2023-04-06T06:57:02.374Z,529.00
2023-04-06T06:57:52.450Z,518.00
2023-04-06T06:58:42.484Z,527.00
2023-04-06T06:59:32.692Z,531.00
2023-04-06T07:00:22.600Z,521.00
2023-04-06T07:01:12.745Z,514.00
2023-04-06T07:02:02.744Z,518.00
2023-04-06T07:02:52.851Z,522.00
2023-04-06T07:03:42.912Z,516.00
2023-04-06T07:04:33.088Z,517.00
2023-04-06T07:06:13.325Z,512.00
2023-04-06T07:07:03.381Z,508.00
2023-04-06T07:07:53.468Z,508.00
2023-04-06T07:08:43.529Z,508.00
2023-04-06T07:09:33.588Z,503.00
2023-04-06T07:10:23.631Z,499.00
2023-04-06T07:11:13.697Z,505.00
2023-04-06T07:12:03.947Z,505.00
2023-04-06T07:12:54.037Z,512.00
2023-04-06T07:13:44.050Z,503.00
2023-04-06T07:14:34.177Z,502.00
2023-04-06T07:15:24.187Z,513.00
2023-04-06T07:16:14.290Z,505.00
2023-04-06T07:17:04.353Z,509.00
2023-04-06T07:17:54.453Z,510.00
2023-04-06T07:18:44.436Z,501.00
2023-04-06T07:19:34.549Z,506.00
2023-04-06T07:20:24.604Z,510.00
2023-04-06T07:21:14.630Z,508.00
2023-04-06T07:22:04.656Z,503.00
2023-04-06T07:22:54.741Z,507.00
2023-04-06T07:23:44.777Z,517.00
2023-04-06T07:24:34.846Z,509.00
2023-04-06T07:25:25.950Z,515.00
2023-04-06T07:26:14.916Z,505.00
2023-04-06T07:27:04.987Z,511.00
2023-04-06T07:27:55.066Z,506.00
2023-04-06T07:28:45.102Z,507.00
2023-04-06T07:29:35.195Z,512.00
2023-04-06T07:30:25.218Z,514.00
2023-04-06T07:31:15.302Z,512.00
2023-04-06T07:32:05.423Z,503.00
2023-04-06T07:32:55.561Z,506.00
2023-04-06T07:33:45.508Z,506.00
2023-04-06T07:34:35.591Z,508.00
2023-04-06T07:35:25.665Z,509.00
2023-04-06T07:36:15.764Z,506.00
2023-04-06T07:37:05.730Z,516.00
2023-04-06T07:37:55.775Z,517.00
2023-04-06T07:38:45.845Z,514.00
2023-04-06T07:39:35.952Z,509.00
2023-04-06T07:40:26.016Z,507.00
2023-04-06T07:41:16.037Z,510.00
2023-04-06T07:42:06.076Z,506.00
2023-04-06T07:42:57.550Z,504.00
2023-04-06T07:43:46.194Z,501.00
2023-04-06T07:44:36.296Z,506.00
2023-04-06T07:45:26.368Z,507.00
2023-04-06T07:46:16.479Z,503.00
2023-04-06T07:47:06.450Z,505.00
2023-04-06T07:47:56.670Z,504.00
2023-04-06T07:48:46.553Z,514.00
2023-04-06T07:49:36.657Z,522.00
2023-04-06T07:50:26.670Z,527.00
2023-04-06T07:51:16.749Z,508.00
2023-04-06T07:52:07.036Z,513.00
2023-04-06T07:52:57.108Z,514.00
2023-04-06T07:53:47.141Z,514.00
2023-04-06T07:54:37.240Z,506.00
2023-04-06T07:55:27.268Z,504.00
2023-04-06T07:56:17.374Z,500.00
2023-04-06T07:57:07.371Z,510.00
2023-04-06T07:57:57.451Z,520.00
2023-04-06T07:58:47.515Z,515.00
2023-04-06T07:59:37.703Z,519.00
2023-04-06T08:00:27.637Z,523.00
2023-04-06T08:01:17.669Z,522.00
2023-04-06T08:02:07.833Z,524.00
2023-04-06T08:02:57.886Z,512.00
2023-04-06T08:03:48.223Z,509.00
2023-04-06T08:04:37.945Z,510.00
2023-04-06T08:05:28.124Z,526.00
2023-04-06T08:06:18.207Z,541.00
2023-04-06T08:07:08.233Z,544.00
2023-04-06T08:07:58.320Z,540.00
2023-04-06T08:08:48.355Z,528.00
2023-04-06T08:09:38.451Z,526.00
2023-04-06T08:10:28.476Z,520.00
2023-04-06T08:11:18.562Z,512.00
2023-04-06T08:12:08.627Z,509.00
2023-04-06T08:12:58.679Z,507.00
2023-04-06T08:13:48.714Z,503.00
2023-04-06T08:14:39.050Z,514.00
2023-04-06T08:15:29.096Z,520.00
2023-04-06T08:16:19.226Z,519.00
2023-04-06T08:17:09.487Z,514.00
2023-04-06T08:17:59.580Z,501.00
2023-04-06T08:18:49.608Z,502.00
2023-04-06T08:19:39.912Z,510.00
2023-04-06T08:20:29.930Z,526.00
2023-04-06T08:21:20.016Z,525.00
2023-04-06T08:22:10.035Z,527.00
2023-04-06T08:23:00.240Z,542.00
2023-04-06T08:23:50.132Z,530.00
2023-04-06T08:24:40.229Z,517.00
2023-04-06T08:25:30.260Z,507.00
2023-04-06T08:26:20.337Z,498.00
2023-04-06T08:27:10.385Z,500.00
2023-04-06T08:28:00.430Z,495.00
2023-04-06T08:28:50.489Z,506.00
2023-04-06T08:29:40.581Z,514.00
2023-04-06T08:30:30.607Z,521.00
2023-04-06T08:31:20.737Z,520.00
2023-04-06T08:32:10.712Z,518.00
2023-04-06T08:33:00.833Z,524.00
2023-04-06T08:33:50.853Z,530.00
2023-04-06T08:34:40.936Z,513.00
2023-04-06T08:35:30.995Z,508.00
2023-04-06T08:36:21.041Z,510.00
2023-04-06T08:37:11.150Z,508.00
2023-04-06T08:38:01.221Z,512.00
2023-04-06T08:38:51.349Z,528.00
2023-04-06T08:39:41.363Z,534.00
2023-04-06T08:40:31.398Z,529.00
2023-04-06T08:41:21.472Z,513.00
2023-04-06T08:42:11.509Z,503.00
2023-04-06T08:43:01.609Z,501.00
2023-04-06T08:43:51.700Z,506.00
2023-04-06T08:44:41.711Z,508.00
2023-04-06T08:45:31.743Z,503.00
2023-04-06T08:46:22.060Z,506.00
2023-04-06T08:47:12.059Z,508.00
2023-04-06T08:48:02.174Z,518.00
2023-04-06T08:48:52.165Z,526.00
2023-04-06T08:49:42.251Z,539.00
2023-04-06T08:50:32.305Z,549.00
2023-04-06T08:51:22.328Z,540.00
2023-04-06T08:52:12.353Z,529.00
2023-04-06T08:53:02.423Z,526.00
2023-04-06T08:53:52.449Z,517.00
2023-04-06T08:54:42.546Z,522.00
2023-04-06T08:55:32.577Z,523.00
2023-04-06T08:56:22.640Z,519.00
2023-04-06T08:57:12.713Z,532.00
2023-04-06T08:58:02.793Z,519.00
2023-04-06T08:58:54.570Z,512.00
2023-04-06T08:59:42.977Z,512.00
2023-04-06T09:00:32.905Z,513.00
2023-04-06T09:01:23.020Z,513.00
2023-04-06T09:02:13.108Z,517.00
2023-04-06T09:03:03.177Z,516.00
2023-04-06T09:03:53.261Z,522.00
2023-04-06T09:04:43.326Z,524.00
2023-04-06T09:05:33.504Z,525.00
2023-04-06T09:06:23.557Z,509.00
2023-04-06T09:08:37.416Z,500.00
2023-04-06T09:09:27.428Z,500.00
2023-04-06T09:10:17.632Z,500.00
2023-04-06T09:11:07.712Z,500.00
2023-04-06T09:11:57.780Z,500.00
2023-04-06T09:12:48.037Z,500.00
2023-04-06T09:13:38.119Z,504.00
2023-04-06T09:14:28.164Z,500.00
2023-04-06T09:15:18.222Z,500.00
2023-04-06T09:16:08.298Z,503.00
2023-04-06T09:16:58.309Z,502.00
2023-04-06T09:17:48.457Z,514.00
2023-04-06T09:18:38.444Z,504.00
2023-04-06T09:19:28.470Z,496.00
2023-04-06T09:20:18.569Z,508.00
2023-04-06T09:21:08.578Z,524.00
2023-04-06T09:21:58.902Z,526.00
2023-04-06T09:22:48.974Z,545.00
2023-04-06T09:23:39.078Z,541.00
2023-04-06T09:24:29.365Z,538.00
2023-04-06T09:25:19.446Z,531.00
2023-04-06T09:26:09.471Z,539.00
2023-04-06T09:26:59.543Z,535.00
2023-04-06T09:27:49.663Z,535.00
2023-04-06T09:28:39.631Z,539.00
2023-04-06T09:29:29.655Z,524.00
2023-04-06T09:30:19.815Z,532.00
2023-04-06T09:31:09.795Z,517.00
2023-04-06T09:31:59.921Z,518.00
2023-04-06T09:32:49.930Z,518.00
2023-04-06T09:33:39.970Z,515.00
2023-04-06T09:34:29.994Z,525.00
2023-04-06T09:35:20.134Z,517.00
2023-04-06T09:36:10.133Z,508.00
2023-04-06T09:37:00.213Z,508.00
2023-04-06T09:37:50.240Z,508.00
2023-04-06T09:38:40.320Z,512.00
2023-04-06T09:39:30.341Z,502.00
2023-04-06T09:40:20.638Z,509.00
2023-04-06T09:41:10.662Z,518.00
2023-04-06T09:42:00.735Z,511.00
2023-04-06T09:42:50.763Z,524.00
2023-04-06T09:43:40.846Z,527.00
2023-04-06T09:44:30.904Z,528.00
2023-04-06T09:45:21.013Z,523.00
2023-04-06T09:46:11.038Z,530.00
2023-04-06T09:47:01.611Z,525.00
2023-04-06T09:47:51.477Z,507.00
2023-04-06T09:48:41.237Z,514.00
2023-04-06T09:49:31.493Z,506.00
2023-04-06T09:50:21.551Z,504.00
2023-04-06T09:51:11.587Z,509.00
2023-04-06T09:52:01.685Z,519.00
2023-04-06T09:52:51.679Z,513.00
2023-04-06T09:53:41.761Z,503.00
2023-04-06T09:54:31.797Z,511.00
2023-04-06T09:55:21.855Z,499.00
2023-04-06T09:56:11.950Z,508.00
2023-04-06T09:57:01.956Z,511.00
2023-04-06T09:57:52.076Z,521.00
2023-04-06T09:58:42.127Z,525.00
2023-04-06T09:59:32.147Z,518.00
2023-04-06T10:00:22.190Z,511.00
2023-04-06T10:01:12.333Z,515.00
2023-04-06T10:02:02.329Z,537.00
2023-04-06T10:02:52.412Z,528.00
2023-04-06T10:03:42.450Z,535.00
2023-04-06T10:04:32.436Z,528.00
2023-04-06T10:05:22.529Z,531.00
2023-04-06T10:06:12.556Z,536.00
2023-04-06T10:07:02.587Z,530.00
2023-04-06T10:08:00.224Z,510.00
2023-04-06T10:08:43.710Z,510.00
2023-04-06T10:09:32.788Z,511.00
2023-04-06T10:10:22.872Z,512.00
2023-04-06T10:11:12.901Z,516.00
2023-04-06T10:12:02.972Z,530.00
2023-04-06T10:12:53.016Z,520.00
2023-04-06T10:13:43.042Z,534.00
2023-04-06T10:14:33.203Z,538.00
2023-04-06T10:15:23.301Z,537.00
2023-04-06T10:16:13.436Z,531.00
2023-04-06T10:17:03.408Z,534.00
2023-04-06T10:17:53.476Z,546.00
2023-04-06T10:18:43.484Z,536.00
2023-04-06T10:19:33.557Z,539.00
2023-04-06T10:20:23.604Z,544.00
2023-04-06T10:21:13.630Z,540.00
2023-04-06T10:22:03.706Z,535.00
2023-04-06T10:22:53.725Z,542.00
2023-04-06T10:23:43.801Z,544.00
2023-04-06T10:24:33.836Z,550.00
2023-04-06T10:25:23.942Z,547.00
2023-04-06T10:26:13.962Z,554.00
2023-04-06T10:27:04.039Z,556.00